createdAt,value
2022-09-09T00:02:41.040Z,58.54
2022-09-09T00:06:48.386Z,58.32
2022-09-09T00:10:51.920Z,58.63
2022-09-09T00:14:58.031Z,58.37
2022-09-09T00:19:07.759Z,58.30
2022-09-09T00:23:24.880Z,58.38
2022-09-09T00:27:40.594Z,58.42
2022-09-09T00:31:42.074Z,58.31
2022-09-09T00:35:47.810Z,58.27
2022-09-09T00:39:50.228Z,58.51
2022-09-09T00:43:59.614Z,58.16
2022-09-09T00:48:09.377Z,58.11
2022-09-09T00:52:22.805Z,57.90
2022-09-09T00:56:29.777Z,58.14
2022-09-09T01:00:38.642Z,58.30
2022-09-09T01:04:40.295Z,58.04
2022-09-09T01:08:56.262Z,57.83
2022-09-09T01:13:01.834Z,57.25
2022-09-09T01:17:11.644Z,56.70
2022-09-09T01:21:26.990Z,56.59
2022-09-09T01:25:34.978Z,55.76
2022-09-09T01:29:37.616Z,55.97
2022-09-09T01:33:38.040Z,55.77
2022-09-09T01:37:38.713Z,55.70
2022-09-09T01:41:38.635Z,55.64
2022-09-09T01:45:52.922Z,56.47
2022-09-09T01:49:53.346Z,56.81
2022-09-09T01:53:54.477Z,56.71
2022-09-09T01:58:03.990Z,56.67
2022-09-09T02:02:14.533Z,57.07
2022-09-09T02:06:36.166Z,57.13
2022-09-09T02:10:46.389Z,57.55
2022-09-09T02:14:53.509Z,57.46
2022-09-09T02:19:00.798Z,57.26
2022-09-09T02:23:04.542Z,57.23
2022-09-09T02:27:09.852Z,57.27
2022-09-09T02:31:10.628Z,56.79
2022-09-09T02:35:17.253Z,56.14
2022-09-09T02:39:20.307Z,55.68
2022-09-09T02:43:24.445Z,54.86
2022-09-09T02:47:38.651Z,54.09
2022-09-09T02:51:50.151Z,53.44
2022-09-09T02:55:56.504Z,52.67
2022-09-09T02:59:57.566Z,52.60
2022-09-09T03:04:00.927Z,53.78
2022-09-09T03:08:08.808Z,53.92
2022-09-09T03:12:09.733Z,53.53
2022-09-09T03:16:26.107Z,53.22
2022-09-09T03:20:27.214Z,53.76
2022-09-09T03:24:48.058Z,52.72
2022-09-09T03:47:30.191Z,55.59
2022-09-09T03:51:55.105Z,53.96
2022-09-09T03:56:03.385Z,53.92
2022-09-09T04:00:20.357Z,54.79
2022-09-09T04:04:24.894Z,55.08
2022-09-09T04:08:26.070Z,55.34
2022-09-09T04:12:29.244Z,55.50
2022-09-09T04:16:31.308Z,55.66
2022-09-09T04:20:34.218Z,55.70
2022-09-09T04:24:33.441Z,55.03
2022-09-09T04:28:38.533Z,54.64
2022-09-09T04:32:39.502Z,53.55
2022-09-09T04:36:44.464Z,53.18
2022-09-09T04:40:46.316Z,51.69
2022-09-09T04:44:46.544Z,51.87
2022-09-09T04:48:46.636Z,52.21
2022-09-09T04:52:49.212Z,52.73
2022-09-09T04:56:48.490Z,54.04
2022-09-09T05:00:49.093Z,53.12
2022-09-09T05:04:51.824Z,52.71
2022-09-09T05:08:54.234Z,52.01
2022-09-09T05:12:57.529Z,51.75
2022-09-09T05:16:58.652Z,51.56
2022-09-09T05:21:02.979Z,51.69
2022-09-09T05:25:06.305Z,53.05
2022-09-09T05:29:09.182Z,53.09
2022-09-09T05:45:51.873Z,48.59
2022-09-09T05:49:51.902Z,49.02
2022-09-09T05:54:57.489Z,49.68
2022-09-09T05:59:09.031Z,50.33
2022-09-09T06:03:13.635Z,50.11
2022-09-09T06:07:20.793Z,51.13
2022-09-09T06:11:25.214Z,50.65
2022-09-09T06:15:25.354Z,50.25
2022-09-09T06:19:27.743Z,50.17
2022-09-09T06:23:28.933Z,49.28
2022-09-09T06:27:30.997Z,48.51
2022-09-09T06:31:51.363Z,47.72
2022-09-09T06:36:01.315Z,46.26
2022-09-09T06:46:04.971Z,42.98
2022-09-09T06:57:20.806Z,39.62
2022-09-09T07:02:19.191Z,39.55
2022-09-09T07:06:24.475Z,37.24
2022-09-09T07:15:14.328Z,37.19
2022-09-09T07:25:40.054Z,37.68
2022-09-09T07:45:13.811Z,32.19
2022-09-09T07:49:56.375Z,33.25
2022-09-09T07:54:03.985Z,33.86
2022-09-09T08:51:03.470Z,30.86
2022-09-09T08:56:02.768Z,30.49
2022-09-09T09:00:38.554Z,31.18
2022-09-09T09:05:18.523Z,30.03
2022-09-09T09:10:01.884Z,30.42
2022-09-09T09:19:52.214Z,31.21
2022-09-09T09:24:35.459Z,30.54
2022-09-09T09:28:52.059Z,30.86
2022-09-09T09:43:38.506Z,30.94
2022-09-09T10:00:33.770Z,31.42
2022-09-09T10:05:54.465Z,31.52
2022-09-09T10:15:48.810Z,31.30
2022-09-09T10:20:52.433Z,29.39
2022-09-09T10:35:34.963Z,28.83
2022-09-09T10:40:06.444Z,30.25
2022-09-09T10:44:35.708Z,29.62
2022-09-09T10:48:52.024Z,30.46
2022-09-09T10:53:13.341Z,30.19
2022-09-09T10:57:25.564Z,30.35
2022-09-09T11:02:09.105Z,29.24
2022-09-09T11:06:33.098Z,28.54
2022-09-09T11:10:47.845Z,29.97
2022-09-09T11:15:55.792Z,28.43
2022-09-09T11:27:12.157Z,27.80
2022-09-09T11:50:32.460Z,28.69
2022-09-09T11:55:44.609Z,27.76
2022-09-09T12:00:50.542Z,27.87
2022-09-09T12:16:11.710Z,26.31
2022-09-09T12:20:58.297Z,25.45
2022-09-09T12:26:00.353Z,25.43
2022-09-09T12:31:10.949Z,26.84
2022-09-09T12:36:12.328Z,26.70
2022-09-09T12:45:34.905Z,26.67
2022-09-09T12:49:55.400Z,27.78
2022-09-09T12:54:44.172Z,28.99
2022-09-09T13:10:36.172Z,29.94
2022-09-09T13:16:16.964Z,29.00
2022-09-09T13:25:53.702Z,29.74
2022-09-09T13:31:17.083Z,29.38
2022-09-09T13:41:14.797Z,31.18
2022-09-09T13:56:45.047Z,33.86
2022-09-09T14:06:51.979Z,33.57
2022-09-09T14:11:23.472Z,32.94
2022-09-09T14:15:46.085Z,32.39
2022-09-09T14:43:10.977Z,31.88
2022-09-09T15:09:07.372Z,34.10
2022-09-09T15:10:39.254Z,35.74
2022-09-09T15:15:10.178Z,36.69
2022-09-09T15:38:35.272Z,43.64
2022-09-09T18:43:08.565Z,55.36
2022-09-09T18:47:59.671Z,55.76
2022-09-09T18:52:13.141Z,56.00
2022-09-09T19:05:55.051Z,56.44
2022-09-09T19:11:09.981Z,56.78
2022-09-09T19:15:12.976Z,56.78
2022-09-09T19:19:17.409Z,55.88
2022-09-09T19:32:53.755Z,55.06
2022-09-09T19:36:56.915Z,55.80
2022-09-09T19:41:36.181Z,56.65
2022-09-09T19:51:06.356Z,58.17
2022-09-09T20:05:44.649Z,57.99
2022-09-09T20:10:03.462Z,57.31
2022-09-09T20:14:04.987Z,57.20
2022-09-09T20:18:08.275Z,57.35
2022-09-09T20:22:11.388Z,57.76
2022-09-09T20:26:25.343Z,58.93
2022-09-09T20:30:26.725Z,60.18
2022-09-09T20:35:24.074Z,60.84
2022-09-09T20:54:30.132Z,59.07
2022-09-09T20:58:35.633Z,58.55
2022-09-09T21:19:32.259Z,54.78
2022-09-09T21:25:15.968Z,53.82
2022-09-09T21:28:52.725Z,53.59
2022-09-09T21:32:53.846Z,52.94
2022-09-09T21:41:37.547Z,54.37
2022-09-09T21:45:47.285Z,54.22
2022-09-09T21:49:47.922Z,53.62
2022-09-09T21:53:59.527Z,54.06
2022-09-09T22:09:06.110Z,55.36
2022-09-09T22:13:24.297Z,56.57
2022-09-09T22:22:12.212Z,59.15
2022-09-09T22:26:36.183Z,58.74
2022-09-09T22:30:51.943Z,58.07
2022-09-09T22:35:17.119Z,59.53
2022-09-09T22:39:21.849Z,60.17
2022-09-09T22:54:53.902Z,60.43
2022-09-09T22:59:05.828Z,60.59
2022-09-09T23:03:32.539Z,59.76
2022-09-09T23:13:21.266Z,58.15
2022-09-09T23:17:52.901Z,57.10
2022-09-09T23:22:47.164Z,56.81
2022-09-09T23:27:33.047Z,56.11
2022-09-09T23:32:20.115Z,55.90
